Time;durP1;ratioP1;P1;durP2;ratioP2;P2;SDS_P1;SDS_P2;PMS_P1;PMS_P2;Temp;Humidity;BMP_temperature;BMP_pressure;BME280_temperature;BME280_humidity;BME280_pressure;Samples;Min_cycle;Max_cycle;Signal;HPM_P1;HPM_P2
2024/01/13 00:01:01;;;;;;;26.20;15.30;;;4.10;99.90;;;;;;4999062;28;20296;-29
2024/01/13 00:03:30;;;;;;;21.77;14.90;;;4.10;99.90;;;;;;4998885;28;20189;-32
2024/01/13 00:05:59;;;;;;;23.80;14.98;;;4.10;99.90;;;;;;4998067;28;20181;-32
2024/01/13 00:08:25;;;;;;;21.60;14.82;;;4.10;99.90;;;;;;4998778;28;20201;-28
2024/01/13 00:10:51;;;;;;;25.10;16.10;;;4.10;99.90;;;;;;4996307;28;20189;-31
2024/01/13 00:13:19;;;;;;;22.60;14.93;;;4.10;99.90;;;;;;4980974;28;20445;-31
2024/01/13 00:15:45;;;;;;;23.05;15.70;;;4.10;99.90;;;;;;4999205;28;20451;-32
2024/01/13 00:18:14;;;;;;;27.77;15.80;;;4.20;99.90;;;;;;4981312;28;20823;-31
2024/01/13 00:20:40;;;;;;;25.05;15.50;;;4.10;99.90;;;;;;4982525;28;20461;-33
2024/01/13 00:23:08;;;;;;;22.90;15.32;;;4.20;99.90;;;;;;4980634;28;20186;-30
2024/01/13 00:25:34;;;;;;;22.75;15.32;;;4.10;99.90;;;;;;4998774;28;20192;-33
2024/01/13 00:28:01;;;;;;;25.17;15.60;;;4.10;99.90;;;;;;4998168;28;20206;-31
2024/01/13 00:30:29;;;;;;;26.33;14.07;;;4.10;99.90;;;;;;4998462;28;20190;-30
2024/01/13 00:32:57;;;;;;;25.30;14.80;;;4.10;99.90;;;;;;4998704;28;20205;-30
2024/01/13 00:35:23;;;;;;;22.17;16.02;;;4.20;99.90;;;;;;4997864;28;20189;-30
2024/01/13 00:37:53;;;;;;;24.35;16.83;;;4.20;99.90;;;;;;4999226;28;20224;-33
2024/01/13 00:40:19;;;;;;;27.98;16.95;;;4.20;99.90;;;;;;4981705;28;20289;-32
2024/01/13 00:42:45;;;;;;;27.42;15.80;;;4.10;99.90;;;;;;4999429;28;21096;-33
2024/01/13 00:45:15;;;;;;;28.63;16.40;;;4.10;99.90;;;;;;5000402;28;20173;-33
2024/01/13 00:47:45;;;;;;;27.95;17.13;;;4.10;99.90;;;;;;4999209;28;20507;-32
2024/01/13 00:50:13;;;;;;;23.48;15.05;;;4.10;99.90;;;;;;5000729;28;20205;-33
2024/01/13 00:52:39;;;;;;;26.80;16.52;;;4.20;99.90;;;;;;5000180;28;20547;-30
2024/01/13 00:55:05;;;;;;;24.27;16.60;;;4.10;99.90;;;;;;4999273;28;20176;-31
2024/01/13 00:57:31;;;;;;;29.20;16.92;;;4.10;99.90;;;;;;5000335;28;20500;-32
2024/01/13 01:00:00;;;;;;;26.00;15.48;;;4.10;99.90;;;;;;5000500;28;20219;-34
2024/01/13 01:02:26;;;;;;;26.30;15.55;;;4.10;99.90;;;;;;5000565;28;20711;-32
2024/01/13 01:04:53;;;;;;;24.27;16.40;;;4.20;99.90;;;;;;4985597;28;20182;-32
2024/01/13 01:07:45;;;;;;;24.77;16.40;;;4.10;99.90;;;;;;5001805;28;20652;-34
2024/01/13 01:10:13;;;;;;;22.38;15.52;;;4.20;99.90;;;;;;5000901;28;20710;-30
2024/01/13 01:12:41;;;;;;;24.30;14.75;;;4.20;99.90;;;;;;4999734;28;20569;-34
2024/01/13 01:15:07;;;;;;;25.80;16.58;;;4.20;99.90;;;;;;4998658;28;20186;-31
2024/01/13 01:17:38;;;;;;;24.00;14.50;;;4.10;99.90;;;;;;4999647;28;20252;-30
2024/01/13 01:20:05;;;;;;;22.85;14.65;;;4.20;99.90;;;;;;5001449;28;20201;-31
2024/01/13 01:22:33;;;;;;;25.17;15.13;;;4.10;99.90;;;;;;5001357;28;20788;-33
2024/01/13 01:25:02;;;;;;;24.67;15.40;;;4.10;99.90;;;;;;4985254;28;20177;-30
2024/01/13 01:27:33;;;;;;;26.40;15.68;;;4.10;99.90;;;;;;5001095;28;20543;-32
2024/01/13 01:30:05;;;;;;;23.30;15.43;;;4.20;99.90;;;;;;5001376;28;20292;-28
2024/01/13 01:32:31;;;;;;;24.70;14.23;;;4.20;99.90;;;;;;5002320;28;20275;-27
2024/01/13 01:34:57;;;;;;;24.90;15.37;;;4.20;99.90;;;;;;5001525;28;20669;-32
2024/01/13 01:37:23;;;;;;;24.73;15.45;;;4.10;99.90;;;;;;5002580;28;21385;-31
2024/01/13 01:39:51;;;;;;;20.00;14.20;;;4.20;99.90;;;;;;5001404;28;20206;-31
2024/01/13 01:42:17;;;;;;;23.42;14.60;;;4.20;99.90;;;;;;5001386;28;20986;-33
2024/01/13 01:44:46;;;;;;;24.40;15.40;;;4.20;99.90;;;;;;4984736;28;20208;-28
2024/01/13 01:47:21;;;;;;;22.17;15.57;;;4.20;99.90;;;;;;5002989;28;21082;-35
2024/01/13 01:49:48;;;;;;;27.23;14.50;;;4.20;99.90;;;;;;5001748;28;20233;-34
2024/01/13 01:52:16;;;;;;;26.48;15.65;;;4.20;99.90;;;;;;5002313;28;20236;-32
2024/01/13 01:54:43;;;;;;;23.92;14.95;;;4.20;99.90;;;;;;5003574;28;20720;-32
2024/01/13 01:57:14;;;;;;;24.92;15.95;;;4.20;99.90;;;;;;5003738;28;20213;-31
2024/01/13 01:59:40;;;;;;;23.85;14.82;;;4.20;99.90;;;;;;5001848;28;20206;-30
2024/01/13 02:02:11;;;;;;;30.67;16.25;;;4.20;99.90;;;;;;5003423;28;20197;-32
2024/01/13 02:04:40;;;;;;;25.60;15.85;;;4.20;99.90;;;;;;5002264;28;20169;-30
2024/01/13 02:07:09;;;;;;;25.75;16.05;;;4.20;99.90;;;;;;5002255;28;20240;-30
2024/01/13 02:09:35;;;;;;;23.42;15.77;;;4.20;99.90;;;;;;4984277;28;20206;-31
2024/01/13 02:12:04;;;;;;;26.25;15.38;;;4.20;99.90;;;;;;5000496;28;20734;-30
2024/01/13 02:14:30;;;;;;;26.63;17.02;;;4.20;99.90;;;;;;5001759;28;20909;-33
2024/01/13 02:17:00;;;;;;;26.15;15.43;;;4.20;99.90;;;;;;5000254;28;20217;-31
2024/01/13 02:19:32;;;;;;;27.52;16.73;;;4.20;99.90;;;;;;5001730;28;20818;-32
2024/01/13 02:21:58;;;;;;;27.42;16.02;;;4.20;99.90;;;;;;5001803;28;20180;-31
2024/01/13 02:24:26;;;;;;;25.85;16.80;;;4.20;99.90;;;;;;5000371;28;20204;-32
2024/01/13 02:26:54;;;;;;;22.73;15.35;;;4.20;99.90;;;;;;5001501;28;20276;-35
2024/01/13 02:29:23;;;;;;;27.45;17.00;;;4.20;99.90;;;;;;4998903;28;20287;-32
2024/01/13 02:31:49;;;;;;;29.13;17.55;;;4.20;99.90;;;;;;5001128;28;20193;-36
2024/01/13 02:34:15;;;;;;;26.03;15.83;;;4.20;99.90;;;;;;5001615;28;20186;-32
2024/01/13 02:36:41;;;;;;;29.63;16.85;;;4.20;99.90;;;;;;4983307;28;20468;-28
2024/01/13 02:39:07;;;;;;;32.10;16.40;;;4.20;99.90;;;;;;5000904;28;20236;-30
2024/01/13 02:41:33;;;;;;;27.77;17.38;;;4.20;99.90;;;;;;4999360;28;20812;-30
2024/01/13 02:43:59;;;;;;;29.02;17.27;;;4.20;99.90;;;;;;5000832;28;20610;-32
2024/01/13 02:46:25;;;;;;;29.83;18.07;;;4.20;99.90;;;;;;4999939;28;20182;-31
2024/01/13 02:48:56;;;;;;;23.55;15.52;;;4.20;99.90;;;;;;4983327;28;20453;-30
2024/01/13 02:51:27;;;;;;;24.55;17.70;;;4.20;99.90;;;;;;4999981;28;20221;-32
2024/01/13 02:53:56;;;;;;;25.40;15.70;;;4.20;99.90;;;;;;5001138;28;20206;-30
2024/01/13 02:56:22;;;;;;;23.58;16.05;;;4.20;99.90;;;;;;5001067;28;20205;-33
2024/01/13 02:58:51;;;;;;;27.57;18.40;;;4.20;99.90;;;;;;4999598;28;20651;-31
2024/01/13 03:01:19;;;;;;;24.83;17.13;;;4.20;99.90;;;;;;5001082;28;20452;-31
2024/01/13 03:03:45;;;;;;;26.93;16.30;;;4.20;99.90;;;;;;4983382;28;20968;-30
2024/01/13 03:06:11;;;;;;;27.80;18.45;;;4.20;99.90;;;;;;5001207;28;20449;-29
2024/01/13 03:08:39;;;;;;;26.60;16.40;;;4.20;99.90;;;;;;5000874;28;20205;-32
2024/01/13 03:11:06;;;;;;;29.73;17.88;;;4.20;99.90;;;;;;4999640;28;20204;-29
2024/01/13 03:13:33;;;;;;;25.35;16.23;;;4.20;99.90;;;;;;5000591;28;20206;-30
2024/01/13 03:15:59;;;;;;;24.65;16.73;;;4.20;99.90;;;;;;5000764;28;20227;-33
2024/01/13 03:18:26;;;;;;;27.10;16.00;;;4.20;99.90;;;;;;5000995;28;20652;-29
2024/01/13 03:20:52;;;;;;;27.90;16.95;;;4.20;99.90;;;;;;4982832;28;20447;-30
2024/01/13 03:23:18;;;;;;;27.80;16.87;;;4.20;99.90;;;;;;4999096;28;20182;-32
2024/01/13 03:25:46;;;;;;;26.83;18.30;;;4.20;99.90;;;;;;4998830;28;20449;-32
2024/01/13 03:28:12;;;;;;;27.73;15.35;;;4.20;99.90;;;;;;5000293;28;20252;-32
2024/01/13 03:30:39;;;;;;;29.27;18.17;;;4.20;99.90;;;;;;4998836;28;20201;-32
2024/01/13 03:33:05;;;;;;;27.27;15.38;;;4.20;99.90;;;;;;4998764;28;20296;-31
2024/01/13 03:35:33;;;;;;;27.23;16.75;;;4.20;99.90;;;;;;5000477;28;20181;-33
2024/01/13 03:37:59;;;;;;;29.03;17.73;;;4.20;99.90;;;;;;5000303;28;20979;-32
2024/01/13 03:40:25;;;;;;;22.70;16.50;;;4.20;99.90;;;;;;4999980;28;20425;-33
2024/01/13 03:42:51;;;;;;;28.95;16.90;;;4.20;99.90;;;;;;5000424;28;20417;-31
2024/01/13 03:45:19;;;;;;;31.15;16.20;;;4.20;99.90;;;;;;5000425;28;20178;-32
2024/01/13 03:47:49;;;;;;;26.30;16.93;;;4.20;99.90;;;;;;4999000;28;20174;-34
2024/01/13 03:50:16;;;;;;;26.33;15.98;;;4.20;99.90;;;;;;4999656;28;20440;-29
2024/01/13 03:52:44;;;;;;;29.42;16.73;;;4.30;99.90;;;;;;4998650;28;20174;-33
2024/01/13 03:55:13;;;;;;;22.02;15.60;;;4.20;99.90;;;;;;5000010;28;20345;-31
2024/01/13 03:57:39;;;;;;;23.50;16.35;;;4.30;99.90;;;;;;4999747;28;20969;-32
2024/01/13 04:00:06;;;;;;;24.08;15.80;;;4.20;99.90;;;;;;4981859;28;20994;-30
2024/01/13 04:02:33;;;;;;;23.70;15.20;;;4.20;99.90;;;;;;4998604;28;20268;-29
2024/01/13 04:04:58;;;;;;;28.38;15.77;;;4.20;99.90;;;;;;4982030;28;20185;-31
2024/01/13 04:07:27;;;;;;;24.25;15.60;;;4.30;99.90;;;;;;5000166;28;20414;-33
2024/01/13 04:09:53;;;;;;;26.40;14.87;;;4.20;99.90;;;;;;4998078;28;20244;-33
2024/01/13 04:12:21;;;;;;;24.05;16.40;;;4.20;99.90;;;;;;5000096;28;20856;-32
2024/01/13 04:14:49;;;;;;;23.08;15.20;;;4.30;99.90;;;;;;4998368;28;20189;-31
2024/01/13 04:17:18;;;;;;;24.80;16.92;;;4.30;99.90;;;;;;4998429;28;20209;-30
2024/01/13 04:19:44;;;;;;;25.70;15.68;;;4.20;99.90;;;;;;4981782;28;20705;-30
2024/01/13 04:22:11;;;;;;;22.13;15.45;;;4.30;99.90;;;;;;4999638;28;20197;-29
2024/01/13 04:24:36;;;;;;;21.42;14.48;;;4.30;99.90;;;;;;4998134;28;20186;-31
2024/01/13 04:27:03;;;;;;;23.90;14.80;;;4.30;99.90;;;;;;4998008;28;20177;-30
2024/01/13 04:29:29;;;;;;;20.80;14.20;;;4.30;99.90;;;;;;4998993;28;20540;-31
2024/01/13 04:32:00;;;;;;;22.30;14.05;;;4.30;99.90;;;;;;4999830;28;20657;-35
2024/01/13 04:34:26;;;;;;;23.58;14.68;;;4.30;99.90;;;;;;4999310;28;20188;-30
2024/01/13 04:36:52;;;;;;;24.33;15.67;;;4.30;99.90;;;;;;4999657;28;20220;-31
2024/01/13 04:39:23;;;;;;;23.95;15.20;;;4.30;99.90;;;;;;4997415;28;20447;-34
2024/01/13 04:41:49;;;;;;;23.10;14.40;;;4.30;99.90;;;;;;4998948;28;20202;-33
2024/01/13 04:44:17;;;;;;;23.73;15.00;;;4.30;99.90;;;;;;4998997;28;20798;-33
2024/01/13 04:46:44;;;;;;;19.47;12.60;;;4.30;99.90;;;;;;4999330;28;20185;-32
2024/01/13 04:49:12;;;;;;;25.67;15.00;;;4.30;99.90;;;;;;4999184;28;20475;-33
2024/01/13 04:51:38;;;;;;;23.02;13.73;;;4.30;99.90;;;;;;4996659;28;20193;-30
2024/01/13 04:54:04;;;;;;;21.48;13.50;;;4.30;99.90;;;;;;4997615;28;20209;-32
2024/01/13 04:56:33;;;;;;;19.95;13.30;;;4.30;99.90;;;;;;4999053;28;20267;-34
2024/01/13 04:59:01;;;;;;;19.75;13.95;;;4.30;99.90;;;;;;4999312;28;20704;-31
2024/01/13 05:01:27;;;;;;;22.95;13.50;;;4.30;99.90;;;;;;4999113;28;20189;-33
2024/01/13 05:03:54;;;;;;;23.05;14.27;;;4.30;99.90;;;;;;4999894;28;20201;-33
2024/01/13 05:06:20;;;;;;;22.50;15.25;;;4.30;99.90;;;;;;4999219;28;20205;-32
2024/01/13 05:08:49;;;;;;;20.33;13.82;;;4.30;99.90;;;;;;4998050;28;20289;-32
2024/01/13 05:11:17;;;;;;;19.60;13.70;;;4.30;99.90;;;;;;4999370;28;20255;-29
2024/01/13 05:13:43;;;;;;;21.77;13.73;;;4.30;99.90;;;;;;4999709;28;21420;-27
2024/01/13 05:16:09;;;;;;;21.63;14.23;;;4.30;99.90;;;;;;4997824;28;20174;-31
2024/01/13 05:18:37;;;;;;;20.40;13.85;;;4.30;99.90;;;;;;4998082;28;20848;-30
2024/01/13 05:21:03;;;;;;;21.45;13.85;;;4.30;99.90;;;;;;4981896;28;20217;-27
2024/01/13 05:23:30;;;;;;;20.45;13.82;;;4.30;99.90;;;;;;4998320;28;20205;-29
2024/01/13 05:25:56;;;;;;;22.05;13.85;;;4.30;99.90;;;;;;4999320;28;20198;-28
2024/01/13 05:28:24;;;;;;;21.80;13.88;;;4.30;99.90;;;;;;4999131;28;20915;-31
2024/01/13 05:30:53;;;;;;;22.33;14.38;;;4.30;99.90;;;;;;4980854;28;20193;-30
2024/01/13 05:33:19;;;;;;;20.58;14.00;;;4.30;99.90;;;;;;4996358;28;20202;-28
2024/01/13 05:35:47;;;;;;;19.05;12.38;;;4.30;99.90;;;;;;5000057;28;20170;-32
2024/01/13 05:38:13;;;;;;;20.88;12.70;;;4.30;99.90;;;;;;4997529;28;20212;-32
2024/01/13 05:40:41;;;;;;;20.20;13.85;;;4.30;99.90;;;;;;4997080;28;20739;-29
2024/01/13 05:43:07;;;;;;;20.52;13.68;;;4.30;99.90;;;;;;4998694;28;21401;-33
2024/01/13 05:45:34;;;;;;;26.70;15.15;;;4.30;99.90;;;;;;4997474;28;20215;-28
2024/01/13 05:48:00;;;;;;;24.73;14.30;;;4.30;99.90;;;;;;4998187;28;20186;-30
2024/01/13 05:50:31;;;;;;;20.20;13.82;;;4.30;99.90;;;;;;4998249;28;20178;-31
2024/01/13 05:52:57;;;;;;;20.73;13.13;;;4.30;99.90;;;;;;4996192;28;20403;-30
2024/01/13 05:55:23;;;;;;;17.93;13.60;;;4.30;99.90;;;;;;4997930;28;20712;-32
2024/01/13 05:57:52;;;;;;;22.45;14.10;;;4.30;99.90;;;;;;4979729;28;21031;-31
2024/01/13 06:00:20;;;;;;;22.67;13.07;;;4.30;99.90;;;;;;4995798;28;20205;-28
2024/01/13 06:02:49;;;;;;;21.02;14.13;;;4.30;99.90;;;;;;4995835;28;20190;-31
2024/01/13 06:05:18;;;;;;;22.15;13.20;;;4.40;99.90;;;;;;5000297;28;20696;-30
2024/01/13 06:07:47;;;;;;;20.13;14.20;;;4.30;99.90;;;;;;5001943;28;20594;-33
2024/01/13 06:10:15;;;;;;;24.10;13.05;;;4.30;99.90;;;;;;4999452;28;20576;-30
2024/01/13 06:12:43;;;;;;;19.63;12.85;;;4.40;99.90;;;;;;5002081;28;20188;-34
2024/01/13 06:15:14;;;;;;;21.05;12.57;;;4.30;99.90;;;;;;4986821;28;20732;-32
2024/01/13 06:17:40;;;;;;;23.67;13.32;;;4.30;99.90;;;;;;4985542;28;20823;-31
2024/01/13 06:20:15;;;;;;;20.75;12.40;;;4.40;99.90;;;;;;5003545;28;20276;-32
2024/01/13 06:22:43;;;;;;;19.88;12.57;;;4.30;99.90;;;;;;5001763;28;20193;-31
2024/01/13 06:25:11;;;;;;;21.70;13.23;;;4.30;99.90;;;;;;4985136;28;20194;-31
2024/01/13 06:27:39;;;;;;;19.10;12.75;;;4.30;99.90;;;;;;5001884;28;20269;-30
2024/01/13 06:30:07;;;;;;;20.83;13.90;;;4.30;99.90;;;;;;5002767;28;20700;-33
2024/01/13 06:32:33;;;;;;;18.65;12.82;;;4.30;99.90;;;;;;5003196;28;20275;-31
2024/01/13 06:35:01;;;;;;;21.73;13.93;;;4.30;99.90;;;;;;5001788;28;20925;-30
2024/01/13 06:37:29;;;;;;;19.23;11.82;;;4.30;99.90;;;;;;5002732;28;20223;-31
2024/01/13 06:39:55;;;;;;;18.85;12.73;;;4.40;99.90;;;;;;5002377;28;20213;-29
2024/01/13 06:42:23;;;;;;;18.20;12.73;;;4.40;99.90;;;;;;5002697;28;20205;-31
2024/01/13 06:44:50;;;;;;;17.33;13.05;;;4.30;99.90;;;;;;5000911;28;20193;-30
2024/01/13 06:47:22;;;;;;;20.10;13.07;;;4.40;99.90;;;;;;4999231;28;20239;-30
2024/01/13 06:49:51;;;;;;;18.48;13.02;;;4.30;99.90;;;;;;4999520;28;20214;-29
2024/01/13 06:52:17;;;;;;;21.35;13.43;;;4.40;99.90;;;;;;4999751;28;20216;-32
2024/01/13 06:54:44;;;;;;;22.40;13.10;;;4.40;99.90;;;;;;4983922;28;20600;-29
2024/01/13 06:57:16;;;;;;;17.05;12.27;;;4.40;99.90;;;;;;4998403;28;20221;-32
2024/01/13 06:59:45;;;;;;;18.10;13.10;;;4.40;99.90;;;;;;4997264;28;21048;-31
2024/01/13 07:02:12;;;;;;;20.85;12.75;;;4.40;99.90;;;;;;5000045;28;20186;-31
2024/01/13 07:04:38;;;;;;;17.08;12.35;;;4.40;99.90;;;;;;4980205;28;20259;-28
2024/01/13 07:07:08;;;;;;;20.05;12.45;;;4.40;99.90;;;;;;5001222;28;20186;-30
2024/01/13 07:09:34;;;;;;;20.55;12.65;;;4.30;99.90;;;;;;4998289;28;20205;-27
2024/01/13 07:12:00;;;;;;;17.90;13.10;;;4.40;99.90;;;;;;4998548;28;20189;-28
2024/01/13 07:14:26;;;;;;;18.40;11.85;;;4.40;99.90;;;;;;4998746;28;20252;-34
2024/01/13 07:16:53;;;;;;;18.40;12.70;;;4.40;99.90;;;;;;4998352;28;20245;-30
2024/01/13 07:19:20;;;;;;;17.95;12.82;;;4.40;99.90;;;;;;4997506;28;20979;-31
2024/01/13 07:21:48;;;;;;;15.52;12.73;;;4.40;99.90;;;;;;4998877;28;20189;-30
2024/01/13 07:24:14;;;;;;;18.23;11.43;;;4.40;99.90;;;;;;4998725;28;20945;-30
2024/01/13 07:26:43;;;;;;;20.13;12.98;;;4.40;99.90;;;;;;4998634;28;20194;-32
2024/01/13 07:29:09;;;;;;;16.60;11.52;;;4.40;99.90;;;;;;4998157;28;20209;-31
2024/01/13 07:31:36;;;;;;;14.40;11.88;;;4.40;99.90;;;;;;4997758;28;20170;-31
2024/01/13 07:34:02;;;;;;;18.08;12.85;;;4.40;99.90;;;;;;4998104;28;20228;-31
2024/01/13 07:36:28;;;;;;;16.45;12.27;;;4.40;99.90;;;;;;4998329;28;20228;-29
2024/01/13 07:38:55;;;;;;;19.25;12.55;;;4.40;99.90;;;;;;4996262;28;20206;-30
2024/01/13 07:41:21;;;;;;;24.30;11.73;;;4.40;99.90;;;;;;4980475;28;20201;-33
2024/01/13 07:43:48;;;;;;;17.67;12.40;;;4.40;99.90;;;;;;4979732;28;20712;-30
2024/01/13 07:46:17;;;;;;;19.20;12.68;;;4.40;99.90;;;;;;4997275;28;20924;-34
2024/01/13 07:48:45;;;;;;;18.05;12.10;;;4.40;99.90;;;;;;4994690;28;20818;-32
2024/01/13 07:51:11;;;;;;;19.13;12.15;;;4.40;99.90;;;;;;4979602;28;20884;-31
2024/01/13 07:53:40;;;;;;;18.73;11.85;;;4.40;99.90;;;;;;4976541;28;20317;-31
2024/01/13 07:56:06;;;;;;;15.82;11.90;;;4.40;99.90;;;;;;4977930;28;20260;-31
2024/01/13 07:58:37;;;;;;;15.73;12.07;;;4.40;99.90;;;;;;4997285;28;20296;-32
2024/01/13 08:01:03;;;;;;;14.70;11.35;;;4.40;99.90;;;;;;4963310;28;20285;-31
2024/01/13 08:03:29;;;;;;;18.73;11.70;;;4.40;99.90;;;;;;4998321;28;20559;-30
2024/01/13 08:05:55;;;;;;;17.30;11.90;;;4.40;99.90;;;;;;4990968;28;20197;-30
2024/01/13 08:08:21;;;;;;;15.80;11.80;;;4.40;99.90;;;;;;4996186;28;20291;-30
2024/01/13 08:10:47;;;;;;;16.93;11.63;;;4.40;99.90;;;;;;4996557;28;20206;-30
2024/01/13 08:13:18;;;;;;;17.40;12.52;;;4.40;99.90;;;;;;4980664;28;20439;-30
2024/01/13 08:15:44;;;;;;;21.05;11.80;;;4.40;99.90;;;;;;4963295;28;20186;-30
2024/01/13 08:18:10;;;;;;;17.63;13.45;;;4.40;99.90;;;;;;4995115;28;20372;-30
2024/01/13 08:20:39;;;;;;;15.32;11.13;;;4.40;99.90;;;;;;4996765;28;20684;-30
2024/01/13 08:23:05;;;;;;;17.10;11.20;;;4.40;99.90;;;;;;4996870;28;20612;-30
2024/01/13 08:25:31;;;;;;;15.70;12.75;;;4.40;99.90;;;;;;4995847;28;20276;-31
2024/01/13 08:28:02;;;;;;;20.60;14.37;;;4.40;99.90;;;;;;4993932;28;20265;-31
2024/01/13 08:30:28;;;;;;;23.35;13.35;;;4.40;99.90;;;;;;4978664;28;20463;-31
2024/01/13 08:32:54;;;;;;;18.95;12.23;;;4.40;99.90;;;;;;4995555;28;20216;-30
2024/01/13 08:35:23;;;;;;;18.60;12.70;;;4.40;99.90;;;;;;4998117;28;20193;-31
2024/01/13 08:37:51;;;;;;;17.55;11.52;;;4.40;99.90;;;;;;5000349;28;20271;-33
2024/01/13 08:40:18;;;;;;;18.77;12.93;;;4.50;99.90;;;;;;4995955;28;20292;-32
2024/01/13 08:42:47;;;;;;;17.60;13.48;;;4.40;99.90;;;;;;4996428;28;20196;-30
2024/01/13 08:45:13;;;;;;;17.98;12.05;;;4.40;99.90;;;;;;4996349;28;20193;-30
2024/01/13 08:47:39;;;;;;;21.80;13.93;;;4.40;99.90;;;;;;4996415;28;20193;-32
2024/01/13 08:50:06;;;;;;;19.40;13.93;;;4.40;99.90;;;;;;4996860;28;20447;-30
2024/01/13 08:52:32;;;;;;;23.55;14.98;;;4.40;99.90;;;;;;4999242;28;20456;-31
2024/01/13 08:54:58;;;;;;;19.90;14.52;;;4.40;99.90;;;;;;4995019;28;20204;-30
2024/01/13 08:57:24;;;;;;;21.65;14.65;;;4.40;99.90;;;;;;4995317;28;20210;-32
2024/01/13 08:59:51;;;;;;;22.30;13.82;;;4.40;99.90;;;;;;4982173;28;20213;-30
2024/01/13 09:02:17;;;;;;;19.35;13.98;;;4.50;99.90;;;;;;4990494;28;20182;-29
2024/01/13 09:04:43;;;;;;;20.43;14.07;;;4.50;99.90;;;;;;4994215;28;20236;-30
2024/01/13 09:07:12;;;;;;;18.88;13.68;;;4.50;99.90;;;;;;4977446;28;20984;-30
2024/01/13 09:09:37;;;;;;;20.35;13.77;;;4.50;99.90;;;;;;4992950;28;20304;-29
2024/01/13 09:12:04;;;;;;;20.43;14.60;;;4.50;99.90;;;;;;4976599;28;20185;-29
2024/01/13 09:14:30;;;;;;;20.63;14.35;;;4.50;99.90;;;;;;4996074;28;20424;-29
2024/01/13 09:16:59;;;;;;;20.03;14.00;;;4.50;99.90;;;;;;5000039;28;20867;-32
2024/01/13 09:19:27;;;;;;;21.77;14.63;;;4.50;99.90;;;;;;4993924;28;20453;-32
2024/01/13 09:21:53;;;;;;;18.92;14.05;;;4.50;99.90;;;;;;4996151;28;20182;-29
2024/01/13 09:24:19;;;;;;;18.90;13.88;;;4.50;99.90;;;;;;4996928;28;20327;-31
2024/01/13 09:26:46;;;;;;;20.33;14.63;;;4.50;99.90;;;;;;4994900;28;20182;-29
2024/01/13 09:29:12;;;;;;;22.13;14.57;;;4.50;99.90;;;;;;4978876;28;20767;-30
2024/01/13 09:31:38;;;;;;;22.30;14.35;;;4.50;99.90;;;;;;5068731;22;20346;-71
2024/01/13 09:34:07;;;;;;;20.63;13.75;;;4.50;99.90;;;;;;4970235;28;20292;-72
2024/01/13 09:36:35;;;;;;;20.00;12.83;;;4.50;99.90;;;;;;4999053;28;20808;-75
2024/01/13 09:39:03;;;;;;;18.83;13.57;;;4.50;99.90;;;;;;5003103;28;20467;-71
2024/01/13 09:41:29;;;;;;;20.50;14.23;;;4.50;99.90;;;;;;5002527;28;20571;-70
2024/01/13 09:44:13;;;;;;;17.02;12.63;;;4.50;99.90;;;;;;5002694;28;20498;-72
2024/01/13 09:46:39;;;;;;;18.83;13.50;;;4.50;99.90;;;;;;5003247;28;20193;-70
2024/01/13 09:49:12;;;;;;;16.75;12.85;;;4.50;99.90;;;;;;5003931;28;20216;-70
2024/01/13 09:51:39;;;;;;;17.00;12.35;;;4.50;99.90;;;;;;4988866;28;20263;-69
2024/01/13 09:54:24;;;;;;;20.92;12.52;;;4.50;99.90;;;;;;5010743;28;20648;-70
2024/01/13 09:56:54;;;;;;;20.17;12.65;;;4.50;99.90;;;;;;5002106;28;20224;-70
2024/01/13 09:59:22;;;;;;;19.10;13.23;;;4.50;99.90;;;;;;5007729;28;20233;-73
2024/01/13 10:01:52;;;;;;;19.85;12.75;;;4.50;99.90;;;;;;5018937;28;20698;-74
2024/01/13 10:04:20;;;;;;;17.30;12.85;;;4.50;99.90;;;;;;4988143;28;20711;-73
2024/01/13 10:06:50;;;;;;;18.55;12.45;;;4.50;99.90;;;;;;4998419;28;20651;-76
2024/01/13 10:09:17;;;;;;;17.40;12.18;;;4.50;99.90;;;;;;5022285;28;20243;-74
2024/01/13 10:11:43;;;;;;;18.90;12.82;;;4.60;99.90;;;;;;5005995;28;20257;-74
2024/01/13 10:14:13;;;;;;;18.17;12.15;;;4.50;99.90;;;;;;5024473;28;20205;-72
2024/01/13 10:16:42;;;;;;;16.58;12.73;;;4.50;99.90;;;;;;5009011;28;20262;-74
2024/01/13 10:19:10;;;;;;;18.02;12.20;;;4.60;99.90;;;;;;5007065;28;20276;-71
2024/01/13 10:21:39;;;;;;;16.52;12.23;;;4.60;99.90;;;;;;4989195;28;20201;-72
2024/01/13 10:24:06;;;;;;;16.73;12.18;;;4.60;99.90;;;;;;5003793;28;20283;-72
2024/01/13 10:26:32;;;;;;;15.45;12.13;;;4.60;99.90;;;;;;5002500;28;20189;-72
2024/01/13 10:28:59;;;;;;;16.55;11.85;;;4.60;99.90;;;;;;4986471;28;20197;-71
2024/01/13 10:31:30;;;;;;;17.15;11.63;;;4.60;99.90;;;;;;4986364;28;20240;-72
2024/01/13 10:33:59;;;;;;;16.95;11.88;;;4.60;99.90;;;;;;4991885;28;20212;-72
2024/01/13 10:36:27;;;;;;;16.27;11.55;;;4.60;99.90;;;;;;5006697;28;20294;-72
2024/01/13 10:39:01;;;;;;;14.68;11.02;;;4.60;99.90;;;;;;5026170;28;20636;-72
2024/01/13 10:41:35;;;;;;;14.93;10.88;;;4.60;99.90;;;;;;5000075;28;20208;-72
2024/01/13 10:44:07;;;;;;;16.52;11.40;;;4.60;99.90;;;;;;5020905;28;20730;-72
2024/01/13 10:46:36;;;;;;;18.27;12.10;;;4.60;99.90;;;;;;5020906;28;20185;-72
2024/01/13 10:49:13;;;;;;;18.05;11.20;;;4.60;99.90;;;;;;5001917;28;20204;-72
2024/01/13 10:51:56;;;;;;;17.33;12.13;;;4.60;99.90;;;;;;5001214;28;20203;-72
2024/01/13 10:54:25;;;;;;;15.33;11.00;;;4.60;99.90;;;;;;5003454;28;20612;-72
2024/01/13 10:56:55;;;;;;;17.38;11.98;;;4.60;99.90;;;;;;5002050;28;20973;-71
2024/01/13 10:59:26;;;;;;;14.55;10.60;;;4.60;99.90;;;;;;5005475;28;20251;-71
2024/01/13 11:01:53;;;;;;;14.90;10.02;;;4.60;99.90;;;;;;4988161;28;20189;-71
2024/01/13 11:04:21;;;;;;;11.95;10.25;;;4.60;99.90;;;;;;4999296;28;20212;-70
2024/01/13 11:06:47;;;;;;;17.27;9.77;;;4.70;99.90;;;;;;4989267;28;20189;-71
2024/01/13 11:09:18;;;;;;;14.88;10.57;;;4.70;99.90;;;;;;5020430;28;20554;-71
2024/01/13 11:12:00;;;;;;;12.60;9.80;;;4.70;99.90;;;;;;5002952;28;20258;-70
2024/01/13 11:14:36;;;;;;;14.60;10.25;;;4.60;99.90;;;;;;4993350;28;20213;-73
2024/01/13 11:17:02;;;;;;;13.73;9.70;;;4.60;99.90;;;;;;5024998;28;20655;-69
2024/01/13 11:19:35;;;;;;;13.02;8.80;;;4.60;99.90;;;;;;5007155;28;20186;-71
2024/01/13 11:22:31;;;;;;;12.32;9.52;;;4.60;99.90;;;;;;4984687;28;20229;-71
2024/01/13 11:24:58;;;;;;;15.63;10.48;;;4.60;99.90;;;;;;4990808;28;20207;-73
2024/01/13 11:27:24;;;;;;;11.82;9.52;;;4.70;99.90;;;;;;4987128;28;20194;-73
2024/01/13 11:29:51;;;;;;;14.30;11.13;;;4.60;99.90;;;;;;5023491;28;20189;-73
2024/01/13 11:32:17;;;;;;;17.98;9.18;;;4.60;99.90;;;;;;4987815;28;20451;-71
2024/01/13 11:34:45;;;;;;;13.05;9.57;;;4.60;99.90;;;;;;5017853;28;20607;-71
2024/01/13 11:37:12;;;;;;;12.98;9.82;;;4.70;99.90;;;;;;5012769;28;20223;-73
2024/01/13 11:39:38;;;;;;;11.05;8.30;;;4.70;99.90;;;;;;4989880;28;20193;-71
2024/01/13 11:42:10;;;;;;;12.38;9.40;;;4.70;99.90;;;;;;4991884;28;20184;-72
2024/01/13 11:44:49;;;;;;;11.80;8.85;;;4.70;99.90;;;;;;4992250;28;20233;-72
2024/01/13 11:47:28;;;;;;;12.50;9.23;;;4.70;99.90;;;;;;5022839;28;20242;-72
2024/01/13 11:49:56;;;;;;;15.00;9.05;;;4.70;99.90;;;;;;5007284;28;20209;-71
2024/01/13 11:52:33;;;;;;;13.10;10.07;;;4.70;99.90;;;;;;5007144;28;20216;-72
2024/01/13 11:55:00;;;;;;;12.00;8.65;;;4.70;99.90;;;;;;5006045;28;20180;-72
2024/01/13 11:57:28;;;;;;;11.98;8.88;;;4.70;99.90;;;;;;4990881;28;20612;-72
2024/01/13 11:59:54;;;;;;;13.45;8.73;;;4.70;99.90;;;;;;5007998;28;20584;-72
2024/01/13 12:02:22;;;;;;;13.60;9.38;;;4.70;99.90;;;;;;5020609;28;20205;-72
2024/01/13 12:04:52;;;;;;;13.20;9.02;;;4.70;99.90;;;;;;5007805;28;20196;-72
2024/01/13 12:07:18;;;;;;;12.55;9.30;;;4.70;99.90;;;;;;5006545;28;20753;-72
2024/01/13 12:09:44;;;;;;;13.35;9.68;;;4.70;99.90;;;;;;4989805;28;20296;-72
2024/01/13 12:12:11;;;;;;;18.05;9.00;;;4.70;99.90;;;;;;5004462;28;20255;-72
2024/01/13 12:14:37;;;;;;;11.05;9.00;;;4.70;99.90;;;;;;5007171;28;20197;-71
2024/01/13 12:17:05;;;;;;;13.68;9.25;;;4.70;99.90;;;;;;5022583;28;20219;-71
2024/01/13 12:19:37;;;;;;;12.05;8.88;;;4.70;99.90;;;;;;5023202;28;20738;-72
2024/01/13 12:22:05;;;;;;;11.23;9.05;;;4.70;99.90;;;;;;5006816;28;20290;-71
2024/01/13 12:24:32;;;;;;;13.23;8.50;;;4.70;99.90;;;;;;5008363;28;20189;-72
2024/01/13 12:26:59;;;;;;;14.23;10.57;;;4.70;99.90;;;;;;5023097;28;20185;-72
2024/01/13 12:29:29;;;;;;;14.88;10.77;;;4.70;99.90;;;;;;5010816;28;20288;-72
2024/01/13 12:32:04;;;;;;;11.77;9.07;;;4.70;99.90;;;;;;5021085;28;20201;-72
2024/01/13 12:34:35;;;;;;;13.40;9.15;;;4.70;99.90;;;;;;5022141;28;20189;-72
2024/01/13 12:37:03;;;;;;;12.07;8.80;;;4.70;99.90;;;;;;5002386;28;20275;-72
2024/01/13 12:39:32;;;;;;;13.07;8.75;;;4.80;99.90;;;;;;5020388;28;20209;-72
2024/01/13 12:41:58;;;;;;;12.38;8.95;;;4.70;99.90;;;;;;5001970;28;20191;-71